createdAt,value
2018-07-17T00:01:16.323Z,17.18
2018-07-17T00:04:21.445Z,17.12
2018-07-17T00:07:26.645Z,17.09
2018-07-17T00:10:31.540Z,17.06
2018-07-17T00:13:36.684Z,16.99
2018-07-17T00:16:41.596Z,16.96
2018-07-17T00:19:46.518Z,16.92
2018-07-17T00:22:51.712Z,16.87
2018-07-17T00:25:57.351Z,16.81
2018-07-17T00:29:03.267Z,16.78
2018-07-17T00:32:09.376Z,16.76
2018-07-17T00:35:16.395Z,16.70
2018-07-17T00:38:22.100Z,16.66
2018-07-17T00:41:28.213Z,16.64
2018-07-17T00:44:33.787Z,16.59
2018-07-17T00:47:38.680Z,16.59
2018-07-17T00:50:43.849Z,16.53
2018-07-17T00:53:50.661Z,16.49
2018-07-17T00:56:55.961Z,16.47
2018-07-17T01:00:01.149Z,16.42
2018-07-17T01:03:14.025Z,16.38
2018-07-17T01:06:26.658Z,16.34
2018-07-17T01:09:37.579Z,16.29
2018-07-17T01:12:42.204Z,16.29
2018-07-17T01:15:47.880Z,16.25
2018-07-17T01:18:53.986Z,16.20
2018-07-17T01:21:59.010Z,16.19
2018-07-17T01:25:05.021Z,16.13
2018-07-17T01:28:10.595Z,16.11
2018-07-17T01:31:16.333Z,16.07
2018-07-17T01:34:21.985Z,16.04
2018-07-17T01:37:27.049Z,16.00
2018-07-17T01:40:31.913Z,15.94
2018-07-17T01:43:37.759Z,15.90
2018-07-17T01:46:43.814Z,15.89
2018-07-17T01:49:49.004Z,15.86
2018-07-17T01:52:53.853Z,15.85
2018-07-17T01:55:59.113Z,15.80
2018-07-17T01:59:04.531Z,15.78
2018-07-17T02:02:10.850Z,15.74
2018-07-17T02:05:16.123Z,15.70
2018-07-17T02:08:20.929Z,15.68
2018-07-17T02:11:25.783Z,15.65
2018-07-17T02:14:31.674Z,15.62
2018-07-17T02:17:37.522Z,15.62
2018-07-17T02:20:42.386Z,15.58
2018-07-17T02:23:48.235Z,15.55
2018-07-17T02:26:54.800Z,15.53
2018-07-17T02:30:00.611Z,15.49
2018-07-17T02:33:06.628Z,15.44
2018-07-17T02:36:13.852Z,15.43
2018-07-17T02:39:19.527Z,15.42
2018-07-17T02:42:25.359Z,15.39
2018-07-17T02:45:31.321Z,15.32
2018-07-17T02:48:36.125Z,15.31
2018-07-17T02:51:41.717Z,15.27
2018-07-17T02:54:48.433Z,15.22
2018-07-17T02:57:54.086Z,15.21
2018-07-17T03:00:58.924Z,15.18
2018-07-17T03:04:04.914Z,15.18
2018-07-17T03:07:14.322Z,15.16
2018-07-17T03:10:20.555Z,15.13
2018-07-17T03:13:26.285Z,15.08
2018-07-17T03:16:32.133Z,15.10
2018-07-17T03:19:37.042Z,15.03
2018-07-17T03:22:43.454Z,15.01
2018-07-17T03:25:49.207Z,15.00
2018-07-17T03:28:54.637Z,14.97
2018-07-17T03:31:59.849Z,14.95
2018-07-17T03:35:18.452Z,14.93
2018-07-17T03:38:27.061Z,14.89
2018-07-17T03:41:32.997Z,14.88
2018-07-17T03:44:38.672Z,14.85
2018-07-17T03:47:44.425Z,14.82
2018-07-17T03:50:59.578Z,14.84
2018-07-17T03:54:08.052Z,14.81
2018-07-17T03:57:14.287Z,14.79
2018-07-17T04:00:19.130Z,14.77
2018-07-17T04:03:24.981Z,14.76
2018-07-17T04:06:30.431Z,14.72
2018-07-17T04:09:36.180Z,14.75
2018-07-17T04:12:40.955Z,14.71
2018-07-17T04:15:47.705Z,14.67
2018-07-17T04:18:54.520Z,14.68
2018-07-17T04:22:00.255Z,14.69
2018-07-17T04:25:05.103Z,14.68
2018-07-17T04:28:10.581Z,14.67
2018-07-17T04:31:16.425Z,14.68
2018-07-17T04:34:21.288Z,14.68
2018-07-17T04:37:26.680Z,14.70
2018-07-17T04:40:32.436Z,14.69
2018-07-17T04:43:37.298Z,14.72
2018-07-17T04:46:42.526Z,14.72
2018-07-17T04:49:47.369Z,14.71
2018-07-17T04:52:52.591Z,14.73
2018-07-17T04:55:57.719Z,14.75
2018-07-17T04:59:03.471Z,14.80
2018-07-17T05:02:10.188Z,14.81
2018-07-17T05:05:16.130Z,14.78
2018-07-17T05:08:21.306Z,14.81
2018-07-17T05:11:27.169Z,14.81
2018-07-17T05:14:32.756Z,14.83
2018-07-17T05:17:38.905Z,14.88
2018-07-17T05:20:44.878Z,14.95
2018-07-17T05:23:51.452Z,15.02
2018-07-17T05:26:56.690Z,15.08
2018-07-17T05:30:01.534Z,15.19
2018-07-17T05:33:07.718Z,15.27
2018-07-17T05:36:14.868Z,15.33
2018-07-17T05:39:20.448Z,15.39
2018-07-17T05:42:25.261Z,15.46
2018-07-17T05:45:30.974Z,15.53
2018-07-17T05:48:36.252Z,15.58
2018-07-17T05:51:41.092Z,15.64
2018-07-17T05:54:47.821Z,15.68
2018-07-17T05:57:53.526Z,15.75
2018-07-17T06:00:58.717Z,15.80
2018-07-17T06:04:03.557Z,15.88
2018-07-17T06:07:08.738Z,15.94
2018-07-17T06:10:14.555Z,16.01
2018-07-17T06:13:19.572Z,16.08
2018-07-17T06:16:25.091Z,16.15
2018-07-17T06:19:29.956Z,16.22
2018-07-17T06:22:36.150Z,16.30
2018-07-17T06:25:41.917Z,16.38
2018-07-17T06:28:47.345Z,16.46
2018-07-17T06:31:53.097Z,16.55
2018-07-17T06:34:59.039Z,16.64
2018-07-17T06:38:05.781Z,16.72
2018-07-17T06:41:10.645Z,16.81
2018-07-17T06:44:15.949Z,16.91
2018-07-17T06:47:21.625Z,17.02
2018-07-17T06:50:27.049Z,17.10
2018-07-17T06:53:32.933Z,17.19
2018-07-17T06:56:38.195Z,17.29
2018-07-17T06:59:45.195Z,17.38
2018-07-17T07:02:50.318Z,17.48
2018-07-17T07:05:55.561Z,17.58
2018-07-17T07:09:02.336Z,17.67
2018-07-17T07:12:09.013Z,17.78
2018-07-17T07:15:15.110Z,17.88
2018-07-17T07:18:19.998Z,17.97
2018-07-17T07:21:25.750Z,18.07
2018-07-17T07:24:31.297Z,18.18
2018-07-17T07:27:36.459Z,18.27
2018-07-17T07:30:41.309Z,18.37
2018-07-17T07:33:46.129Z,18.46
2018-07-17T07:36:51.616Z,18.56
2018-07-17T07:39:56.469Z,18.66
2018-07-17T07:43:02.559Z,18.76
2018-07-17T07:46:07.857Z,18.86
2018-07-17T07:49:12.766Z,18.97
2018-07-17T07:52:18.740Z,19.07
2018-07-17T07:55:25.515Z,19.16
2018-07-17T07:58:31.354Z,19.25
2018-07-17T08:01:36.189Z,19.37
2018-07-17T08:04:41.119Z,19.48
2018-07-17T08:07:46.068Z,19.59
2018-07-17T08:10:51.433Z,19.72
2018-07-17T08:13:57.205Z,19.86
2018-07-17T08:17:02.561Z,19.98
2018-07-17T08:20:07.730Z,20.10
2018-07-17T08:23:12.606Z,20.24
2018-07-17T08:26:17.857Z,20.36
2018-07-17T08:29:22.725Z,20.49
2018-07-17T08:32:28.590Z,20.61
2018-07-17T08:35:34.324Z,20.75
2018-07-17T08:38:40.134Z,20.89
2018-07-17T08:41:45.325Z,21.05
2018-07-17T08:44:50.178Z,21.20
2018-07-17T08:47:56.156Z,21.34
2018-07-17T08:51:01.739Z,21.48
2018-07-17T08:54:07.700Z,21.60
2018-07-17T08:57:13.490Z,21.74
2018-07-17T09:00:18.551Z,21.87
2018-07-17T09:03:23.601Z,22.01
2018-07-17T09:06:29.526Z,22.15
2018-07-17T09:09:35.226Z,22.29
2018-07-17T09:12:40.859Z,22.43
2018-07-17T09:15:46.049Z,22.58
2018-07-17T09:18:51.810Z,22.70
2018-07-17T09:21:57.192Z,22.83
2018-07-17T09:25:02.953Z,22.98
2018-07-17T09:28:08.222Z,23.11
2018-07-17T09:31:13.327Z,23.25
2018-07-17T09:34:18.157Z,23.38
2018-07-17T09:37:24.321Z,23.52
2018-07-17T09:40:30.437Z,23.62
2018-07-17T09:43:35.295Z,23.73
2018-07-17T09:46:40.145Z,23.87
2018-07-17T09:49:45.428Z,24.01
2018-07-17T09:52:51.270Z,24.14
2018-07-17T09:55:56.129Z,24.28
2018-07-17T09:59:01.471Z,24.47
2018-07-17T10:02:12.540Z,24.63
2018-07-17T10:05:17.649Z,24.81
2018-07-17T10:08:23.553Z,24.92
2018-07-17T10:11:29.714Z,25.09
2018-07-17T10:14:34.891Z,25.32
2018-07-17T10:17:40.102Z,25.34
2018-07-17T10:20:47.320Z,25.29
2018-07-17T10:23:52.902Z,25.28
2018-07-17T10:26:58.964Z,25.23
2018-07-17T10:30:04.250Z,25.24
2018-07-17T10:33:10.374Z,25.25
2018-07-17T10:36:15.940Z,25.29
2018-07-17T10:39:20.801Z,25.33
2018-07-17T10:42:26.049Z,25.37
2018-07-17T10:45:31.221Z,25.45
2018-07-17T10:48:37.410Z,25.52
2018-07-17T10:51:43.227Z,25.60
2018-07-17T10:54:48.045Z,25.66
2018-07-17T10:57:53.325Z,25.73
2018-07-17T11:00:58.191Z,25.78
2018-07-17T11:04:05.077Z,25.86
2018-07-17T11:07:09.921Z,25.88
2018-07-17T11:10:14.777Z,25.92
2018-07-17T11:13:20.648Z,25.94
2018-07-17T11:16:26.205Z,25.95
2018-07-17T11:19:33.026Z,25.96
2018-07-17T11:22:37.882Z,25.99
2018-07-17T11:25:43.273Z,26.02
2018-07-17T11:28:48.128Z,26.04
2018-07-17T11:31:53.033Z,26.06
2018-07-17T11:34:58.380Z,26.12
2018-07-17T11:38:04.545Z,26.17
2018-07-17T11:41:11.691Z,26.20
2018-07-17T11:44:17.349Z,26.22
2018-07-17T11:47:22.505Z,26.26
2018-07-17T11:50:27.601Z,26.32
2018-07-17T11:53:32.457Z,26.37
2018-07-17T11:56:37.555Z,26.41
2018-07-17T11:59:42.405Z,26.46
2018-07-17T12:02:47.263Z,26.50
2018-07-17T12:05:53.605Z,26.56
2018-07-17T12:08:58.650Z,26.59
2018-07-17T12:12:03.526Z,26.61
2018-07-17T12:15:08.886Z,26.63
2018-07-17T12:18:13.859Z,26.61
2018-07-17T12:21:20.649Z,26.64
2018-07-17T12:24:25.567Z,26.68
2018-07-17T12:27:30.902Z,26.74
2018-07-17T12:30:36.705Z,26.78
2018-07-17T12:33:41.894Z,26.83
2018-07-17T12:36:48.027Z,26.83
2018-07-17T12:39:53.970Z,26.88
2018-07-17T12:43:00.073Z,26.92
2018-07-17T12:46:06.118Z,26.97
2018-07-17T12:49:13.100Z,27.02
2018-07-17T12:52:20.168Z,27.07
2018-07-17T12:55:25.927Z,27.12
2018-07-17T12:58:30.799Z,27.15
2018-07-17T13:01:36.146Z,27.14
2018-07-17T13:04:41.000Z,27.18
2018-07-17T13:07:46.906Z,27.21
2018-07-17T13:10:52.794Z,27.18
2018-07-17T13:13:58.366Z,27.17
2018-07-17T13:17:03.222Z,27.18
2018-07-17T13:20:08.117Z,27.17
2018-07-17T13:23:12.997Z,27.24
2018-07-17T13:26:19.205Z,27.31
2018-07-17T13:29:25.192Z,27.37
2018-07-17T13:32:31.048Z,27.42
2018-07-17T13:35:36.701Z,27.45
2018-07-17T13:38:42.488Z,27.52
2018-07-17T13:41:47.359Z,27.57
2018-07-17T13:44:53.220Z,27.63
2018-07-17T13:47:58.518Z,27.68
2018-07-17T13:51:04.365Z,27.73
2018-07-17T13:54:09.252Z,27.78
2018-07-17T13:57:16.533Z,27.87
2018-07-17T14:00:22.663Z,27.95
2018-07-17T14:03:28.526Z,28.02
2018-07-17T14:06:35.553Z,28.06
2018-07-17T14:09:41.240Z,28.12
2018-07-17T14:12:47.005Z,28.20
2018-07-17T14:15:52.278Z,28.27
2018-07-17T14:18:57.124Z,28.31
2018-07-17T14:22:02.487Z,28.34
2018-07-17T14:25:07.321Z,28.40
2018-07-17T14:28:14.105Z,28.48
2018-07-17T14:31:19.901Z,28.55
2018-07-17T14:34:26.649Z,28.61
2018-07-17T14:37:32.081Z,28.63
2018-07-17T14:40:36.897Z,28.65
2018-07-17T14:43:41.738Z,28.68
2018-07-17T14:46:47.580Z,28.74
2018-07-17T14:49:53.093Z,28.76
2018-07-17T14:52:58.214Z,28.78
2018-07-17T14:56:03.993Z,28.84
2018-07-17T14:59:09.602Z,28.86
2018-07-17T15:02:15.698Z,28.88
2018-07-17T15:05:21.133Z,28.94
2018-07-17T15:08:26.105Z,28.94
2018-07-17T15:11:31.301Z,28.95
2018-07-17T15:14:37.899Z,28.95
2018-07-17T15:17:42.961Z,28.99
2018-07-17T15:20:48.084Z,29.00
2018-07-17T15:23:54.195Z,28.99
2018-07-17T15:27:00.060Z,28.98
2018-07-17T15:30:05.964Z,28.96
2018-07-17T15:33:11.760Z,28.94
2018-07-17T15:36:17.424Z,28.91
2018-07-17T15:39:23.338Z,28.90
2018-07-17T15:42:30.330Z,28.88
2018-07-17T15:45:36.199Z,28.88
2018-07-17T15:48:42.191Z,28.86
2018-07-17T15:51:47.864Z,28.86
2018-07-17T15:54:52.889Z,28.87
2018-07-17T15:57:57.915Z,28.89
2018-07-17T16:01:03.980Z,28.90
2018-07-17T16:04:10.045Z,28.88
2018-07-17T16:07:15.838Z,28.84
2018-07-17T16:10:20.923Z,28.82
2018-07-17T16:13:26.317Z,28.78
2018-07-17T16:16:31.724Z,28.75
2018-07-17T16:19:37.785Z,28.71
2018-07-17T16:22:44.087Z,28.68
2018-07-17T16:25:50.125Z,28.65
2018-07-17T16:28:55.874Z,28.61
2018-07-17T16:32:01.811Z,28.59
2018-07-17T16:35:09.126Z,28.55
2018-07-17T16:38:14.440Z,28.51
2018-07-17T16:41:20.744Z,28.44
2018-07-17T16:44:26.049Z,28.40
2018-07-17T16:47:31.977Z,28.34
2018-07-17T16:50:37.887Z,28.30
2018-07-17T16:53:43.683Z,28.26
2018-07-17T16:56:49.469Z,28.21
2018-07-17T16:59:55.749Z,28.14
2018-07-17T17:03:00.945Z,28.08
2018-07-17T17:06:06.468Z,28.00
2018-07-17T17:09:12.564Z,27.95
2018-07-17T17:12:17.810Z,27.88
2018-07-17T17:15:22.992Z,27.83
2018-07-17T17:18:30.229Z,27.77
2018-07-17T17:21:36.051Z,27.70
2018-07-17T17:24:41.692Z,27.63
2018-07-17T17:27:47.698Z,27.56
2018-07-17T17:30:53.585Z,27.47
2018-07-17T17:33:59.531Z,27.40
2018-07-17T17:37:04.676Z,27.33
2018-07-17T17:40:11.213Z,27.24
2018-07-17T17:43:17.133Z,27.15
2018-07-17T17:46:24.261Z,27.09
2018-07-17T17:49:29.747Z,27.02
2018-07-17T17:52:35.772Z,26.95
2018-07-17T17:55:41.684Z,26.86
2018-07-17T17:58:47.398Z,26.79
2018-07-17T18:01:53.601Z,26.72
2018-07-17T18:04:59.334Z,26.66
2018-07-17T18:08:05.617Z,26.58
2018-07-17T18:11:11.875Z,26.50
2018-07-17T18:14:18.160Z,26.44
2018-07-17T18:17:24.011Z,26.37
2018-07-17T18:20:30.276Z,26.27
2018-07-17T18:23:35.454Z,26.21
2018-07-17T18:26:40.652Z,26.14
2018-07-17T18:29:46.680Z,26.06
2018-07-17T18:32:52.199Z,25.99
2018-07-17T18:35:59.290Z,25.92
2018-07-17T18:39:06.683Z,25.83
2018-07-17T18:42:12.061Z,25.75
2018-07-17T18:45:24.307Z,25.67
2018-07-17T18:48:30.510Z,25.59
2018-07-17T18:51:36.489Z,25.49
2018-07-17T18:54:41.783Z,25.41
2018-07-17T18:57:47.931Z,25.33
2018-07-17T19:00:53.140Z,25.23
2018-07-17T19:03:58.945Z,25.12
2018-07-17T19:07:04.860Z,25.05
2018-07-17T19:10:10.890Z,24.94
2018-07-17T19:13:16.645Z,24.83
2018-07-17T19:16:22.996Z,24.74
2018-07-17T19:19:28.334Z,24.65
2018-07-17T19:22:33.614Z,24.54
2018-07-17T19:25:38.846Z,24.43
2018-07-17T19:28:45.175Z,24.34
2018-07-17T19:31:50.397Z,24.20
2018-07-17T19:34:56.792Z,24.10
2018-07-17T19:38:02.921Z,23.97
2018-07-17T19:41:09.122Z,23.86
2018-07-17T19:44:14.795Z,23.75
2018-07-17T19:47:20.330Z,23.65
2018-07-17T19:50:27.179Z,23.56
2018-07-17T19:53:33.090Z,23.48
2018-07-17T19:56:39.012Z,23.40
2018-07-17T19:59:43.897Z,23.33
2018-07-17T20:02:49.002Z,23.27
2018-07-17T20:05:54.813Z,23.21
2018-07-17T20:09:00.135Z,23.15
2018-07-17T20:12:05.562Z,23.12
2018-07-17T20:15:11.385Z,23.07
2018-07-17T20:18:16.207Z,23.03
2018-07-17T20:21:21.572Z,22.98
2018-07-17T20:24:26.803Z,22.94
2018-07-17T20:27:32.469Z,22.88
2018-07-17T20:30:37.345Z,22.84
2018-07-17T20:33:42.753Z,22.79
2018-07-17T20:36:48.079Z,22.71
2018-07-17T20:39:54.801Z,22.67
2018-07-17T20:43:00.253Z,22.59
2018-07-17T20:46:06.156Z,22.53
2018-07-17T20:49:10.961Z,22.47
2018-07-17T20:52:16.397Z,22.42
2018-07-17T20:55:22.277Z,22.33
2018-07-17T20:58:27.099Z,22.26
2018-07-17T21:01:32.171Z,22.20
2018-07-17T21:04:37.029Z,22.13
2018-07-17T21:07:42.248Z,22.05
2018-07-17T21:10:48.128Z,22.00
2018-07-17T21:13:54.543Z,21.92
2018-07-17T21:17:00.360Z,21.88
2018-07-17T21:20:06.653Z,21.80
2018-07-17T21:23:13.068Z,21.75
2018-07-17T21:26:19.541Z,21.67
2018-07-17T21:29:25.613Z,21.58
2018-07-17T21:32:31.525Z,21.56
2018-07-17T21:35:37.144Z,21.50
2018-07-17T21:38:42.297Z,21.45
2018-07-17T21:41:48.065Z,21.41
2018-07-17T21:44:52.897Z,21.36
2018-07-17T21:47:58.136Z,21.32
2018-07-17T21:51:02.982Z,21.27
2018-07-17T21:54:07.809Z,21.23
2018-07-17T21:57:13.485Z,21.21
2018-07-17T22:00:19.166Z,21.16
2018-07-17T22:03:25.237Z,21.14
2018-07-17T22:06:31.354Z,21.11
2018-07-17T22:09:36.169Z,21.09
2018-07-17T22:12:41.891Z,21.04
2018-07-17T22:15:47.553Z,21.02
2018-07-17T22:18:52.393Z,20.99
2018-07-17T22:21:58.197Z,20.95
2018-07-17T22:25:04.141Z,20.95
2018-07-17T22:28:09.766Z,20.91
2018-07-17T22:31:16.573Z,20.88
2018-07-17T22:34:21.811Z,20.86
2018-07-17T22:37:26.633Z,20.83
2018-07-17T22:40:32.765Z,20.81
2018-07-17T22:43:37.692Z,20.78
2018-07-17T22:46:43.063Z,20.76
2018-07-17T22:49:47.881Z,20.74
2018-07-17T22:52:53.565Z,20.71
2018-07-17T22:55:59.022Z,20.69
2018-07-17T22:59:06.907Z,20.67
2018-07-17T23:02:19.669Z,20.64
2018-07-17T23:05:25.362Z,20.62
2018-07-17T23:08:30.851Z,20.59
2018-07-17T23:11:37.676Z,20.57
2018-07-17T23:14:42.502Z,20.55
2018-07-17T23:17:47.337Z,20.52
2018-07-17T23:20:52.533Z,20.50
2018-07-17T23:23:57.722Z,20.48
2018-07-17T23:27:03.494Z,20.47
2018-07-17T23:30:09.246Z,20.46
2018-07-17T23:33:14.986Z,20.44
2018-07-17T23:36:21.733Z,20.44
2018-07-17T23:39:27.001Z,20.40
2018-07-17T23:42:31.857Z,20.38
2018-07-17T23:45:37.037Z,20.36
2018-07-17T23:48:42.790Z,20.34
2018-07-17T23:51:47.627Z,20.33
2018-07-17T23:54:52.929Z,20.29
2018-07-17T23:57:57.771Z,20.27
